Time;durP1;ratioP1;P1;durP2;ratioP2;P2;SDS_P1;SDS_P2;PMS_P1;PMS_P2;Temp;Humidity;BMP_temperature;BMP_pressure;BME280_temperature;BME280_humidity;BME280_pressure;Samples;Min_cycle;Max_cycle;Signal;HPM_P1;HPM_P2
2022/01/20 00:00:55;;;;;;;19.00;3.17;;;5.10;99.90;;;;;;5115571;27;20523;-68
2022/01/20 00:03:24;;;;;;;23.98;3.35;;;5.20;99.90;;;;;;5104061;27;20050;-68
2022/01/20 00:08:36;;;;;;;20.75;3.05;;;5.20;99.90;;;;;;5117346;27;20118;-68
2022/01/20 00:27:32;;;;;;;11.27;2.45;;;5.10;99.90;;;;;;5115882;27;20043;-68
2022/01/20 00:35:23;;;;;;;9.20;1.83;;;5.10;99.90;;;;;;5115103;27;20104;-68
2022/01/20 00:37:49;;;;;;;9.90;2.20;;;5.10;99.90;;;;;;5115238;27;20054;-68
2022/01/20 00:40:15;;;;;;;10.63;3.10;;;5.00;99.90;;;;;;5115691;27;20050;-68
2022/01/20 00:42:41;;;;;;;12.00;1.98;;;5.00;99.90;;;;;;5115379;27;20050;-68
2022/01/20 00:45:07;;;;;;;9.88;1.90;;;5.00;99.90;;;;;;5115714;27;20035;-68
2022/01/20 00:47:33;;;;;;;10.32;2.47;;;5.00;99.90;;;;;;5133943;27;20122;-68
2022/01/20 00:49:59;;;;;;;6.70;1.73;;;5.10;99.90;;;;;;5133754;27;20115;-68
2022/01/20 00:52:24;;;;;;;11.80;2.25;;;5.00;99.90;;;;;;5115196;27;20039;-68
2022/01/20 00:54:50;;;;;;;16.67;3.17;;;5.10;99.90;;;;;;5115492;27;20066;-68
2022/01/20 00:57:16;;;;;;;10.23;2.08;;;5.10;99.90;;;;;;5115701;27;20042;-69
2022/01/20 00:59:41;;;;;;;9.80;1.90;;;5.10;99.90;;;;;;5115419;27;20095;-68
2022/01/20 01:02:09;;;;;;;12.52;2.10;;;5.10;99.90;;;;;;5114868;27;20088;-68
2022/01/20 01:04:36;;;;;;;16.33;2.55;;;5.20;99.90;;;;;;5115068;27;20043;-68
2022/01/20 01:07:49;;;;;;;17.05;2.10;;;5.20;99.90;;;;;;5098168;27;20055;-68
2022/01/20 01:09:48;;;;;;;14.85;2.22;;;5.10;99.90;;;;;;5112193;27;20050;-68
2022/01/20 01:12:20;;;;;;;13.40;2.90;;;5.00;99.90;;;;;;5114741;27;20483;-68
2022/01/20 01:14:50;;;;;;;13.13;2.00;;;5.10;99.90;;;;;;5113705;28;20043;-68
2022/01/20 01:20:11;;;;;;;14.25;2.20;;;5.00;99.90;;;;;;5133368;27;20043;-68
2022/01/20 01:22:37;;;;;;;12.90;1.92;;;5.00;99.90;;;;;;5133117;27;20448;-68
2022/01/20 01:25:03;;;;;;;14.35;2.42;;;5.00;99.90;;;;;;5133052;27;20122;-68
2022/01/20 01:27:33;;;;;;;15.75;2.20;;;5.00;99.90;;;;;;5133063;27;20039;-68
2022/01/20 01:30:19;;;;;;;8.63;1.90;;;5.00;99.90;;;;;;5138468;27;20091;-68
2022/01/20 01:32:54;;;;;;;16.83;2.63;;;5.00;99.90;;;;;;5123432;27;20455;-69
2022/01/20 01:35:22;;;;;;;17.00;2.05;;;4.90;99.90;;;;;;5118409;27;20454;-69
2022/01/20 01:40:14;;;;;;;15.52;2.25;;;4.90;99.90;;;;;;5133355;27;20066;-69
2022/01/20 01:42:45;;;;;;;10.32;2.40;;;4.90;99.90;;;;;;5097329;27;20035;-69
2022/01/20 01:45:15;;;;;;;6.55;1.98;;;4.90;99.90;;;;;;5114482;27;20051;-69
2022/01/20 01:47:41;;;;;;;8.98;1.85;;;4.90;99.90;;;;;;5114734;27;20031;-69
2022/01/20 01:50:07;;;;;;;7.43;2.78;;;5.00;99.90;;;;;;5132848;27;20096;-69
2022/01/20 01:52:33;;;;;;;15.02;2.38;;;4.90;99.90;;;;;;5114385;27;20403;-69
2022/01/20 01:54:59;;;;;;;10.88;1.95;;;5.00;99.90;;;;;;5132773;27;20042;-69
2022/01/20 01:57:27;;;;;;;8.55;1.73;;;5.00;99.90;;;;;;5114300;28;20078;-69
2022/01/20 01:59:54;;;;;;;16.92;2.55;;;5.00;99.90;;;;;;5097317;28;20114;-69
2022/01/20 02:02:20;;;;;;;11.88;2.17;;;5.00;99.90;;;;;;5114157;28;20050;-69
2022/01/20 02:04:45;;;;;;;12.98;1.98;;;5.10;99.90;;;;;;5114008;28;20411;-72
2022/01/20 02:19:03;;;;;;;9.15;1.83;;;4.70;99.90;;;;;;5114125;28;20071;-69
2022/01/20 02:20:57;;;;;;;6.63;1.73;;;4.80;99.90;;;;;;5092307;28;20071;-69
2022/01/20 02:23:25;;;;;;;7.97;1.83;;;4.80;99.90;;;;;;5113737;27;20066;-69
2022/01/20 02:25:51;;;;;;;9.15;2.33;;;4.80;99.90;;;;;;5113993;27;20047;-69
2022/01/20 02:28:17;;;;;;;5.80;1.48;;;4.70;99.90;;;;;;5118136;27;20042;-69
2022/01/20 02:30:43;;;;;;;5.68;1.38;;;4.80;99.90;;;;;;5118115;27;20556;-69
2022/01/20 02:33:18;;;;;;;8.30;1.52;;;4.80;99.90;;;;;;5117843;27;20035;-69
2022/01/20 02:36:14;;;;;;;7.90;1.52;;;4.80;99.90;;;;;;5100993;27;20053;-69
2022/01/20 02:38:55;;;;;;;10.32;2.05;;;4.90;99.90;;;;;;5118165;27;20115;-69
2022/01/20 02:46:49;;;;;;;9.00;2.22;;;4.80;99.90;;;;;;5117817;27;20074;-69
2022/01/20 02:49:16;;;;;;;8.55;1.80;;;4.80;99.90;;;;;;5100848;27;20039;-72
2022/01/20 02:51:50;;;;;;;7.50;1.70;;;4.70;99.90;;;;;;5117604;27;20487;-72
2022/01/20 02:54:17;;;;;;;8.45;1.70;;;4.60;99.90;;;;;;5117423;27;20039;-71
2022/01/20 02:56:42;;;;;;;8.13;1.63;;;4.60;99.90;;;;;;5119539;27;20035;-71
2022/01/20 02:59:08;;;;;;;6.40;1.67;;;4.50;99.90;;;;;;5119438;27;20043;-72
2022/01/20 03:01:33;;;;;;;3.28;1.55;;;4.50;99.90;;;;;;5118451;27;20047;-72
2022/01/20 03:04:00;;;;;;;7.45;1.70;;;4.60;99.90;;;;;;5117089;27;20054;-71
2022/01/20 03:06:26;;;;;;;7.35;1.48;;;4.50;99.90;;;;;;5101255;27;20507;-72
2022/01/20 03:08:52;;;;;;;3.25;1.27;;;4.50;99.90;;;;;;5137001;27;20039;-71
2022/01/20 03:11:18;;;;;;;6.10;1.73;;;4.50;99.90;;;;;;5118477;27;20043;-71
2022/01/20 03:13:43;;;;;;;6.43;1.60;;;4.40;99.90;;;;;;5117524;27;20102;-71
2022/01/20 03:16:09;;;;;;;8.73;1.67;;;4.40;99.90;;;;;;5135671;27;20124;-70
2022/01/20 03:18:35;;;;;;;10.23;2.17;;;4.40;99.90;;;;;;5117263;27;20039;-70
2022/01/20 03:21:00;;;;;;;5.53;1.85;;;4.40;99.90;;;;;;5117175;27;20054;-69
2022/01/20 03:23:26;;;;;;;7.03;2.63;;;4.30;99.90;;;;;;5116921;27;20050;-69
2022/01/20 03:25:52;;;;;;;8.07;1.88;;;4.30;99.90;;;;;;5099863;27;20070;-69
2022/01/20 03:28:17;;;;;;;15.60;2.85;;;4.40;99.90;;;;;;5135443;27;20035;-69
2022/01/20 03:30:43;;;;;;;12.30;2.13;;;4.30;99.90;;;;;;5116990;27;20066;-69
2022/01/20 03:33:08;;;;;;;19.20;2.97;;;4.30;99.90;;;;;;5134868;27;20126;-69
2022/01/20 03:35:35;;;;;;;16.88;2.75;;;4.50;99.90;;;;;;5116806;27;20463;-69
2022/01/20 03:38:03;;;;;;;11.27;2.72;;;4.30;99.90;;;;;;5115800;27;20057;-69
2022/01/20 03:40:28;;;;;;;30.40;4.80;;;4.30;99.90;;;;;;5116643;27;20046;-69
2022/01/20 03:42:54;;;;;;;15.30;3.00;;;4.30;99.90;;;;;;5134815;27;20670;-69
2022/01/20 03:45:24;;;;;;;15.23;2.70;;;4.40;99.90;;;;;;5134935;27;20126;-69
2022/01/20 03:47:51;;;;;;;13.77;2.40;;;4.40;99.90;;;;;;5116527;27;20122;-69
2022/01/20 03:53:01;;;;;;;13.63;2.28;;;4.30;99.90;;;;;;5116249;27;20078;-69
2022/01/20 03:55:26;;;;;;;19.83;3.03;;;4.20;99.90;;;;;;5116309;27;20070;-69
2022/01/20 03:57:52;;;;;;;13.00;2.85;;;4.20;99.90;;;;;;5134583;27;20080;-69
2022/01/20 04:00:17;;;;;;;21.08;2.70;;;4.20;99.90;;;;;;5099515;27;20049;-69
2022/01/20 04:02:43;;;;;;;29.08;4.78;;;4.30;99.90;;;;;;5134344;27;20039;-70
2022/01/20 04:05:09;;;;;;;19.08;2.50;;;4.20;99.90;;;;;;5115833;27;20055;-69
2022/01/20 04:07:34;;;;;;;16.75;3.05;;;4.30;99.90;;;;;;5116098;27;20035;-69
2022/01/20 04:10:00;;;;;;;19.33;3.53;;;4.20;99.90;;;;;;5116065;27;20513;-69
2022/01/20 04:12:25;;;;;;;26.02;3.83;;;4.10;99.90;;;;;;5134211;27;20039;-69
2022/01/20 04:14:51;;;;;;;19.27;2.97;;;4.10;99.90;;;;;;5115490;27;20035;-69
2022/01/20 04:17:19;;;;;;;22.70;3.22;;;4.20;99.90;;;;;;5099218;27;20118;-69
2022/01/20 04:19:45;;;;;;;17.48;3.55;;;4.20;99.90;;;;;;5134395;27;20104;-69
2022/01/20 04:22:11;;;;;;;17.80;3.03;;;4.20;99.90;;;;;;5115736;27;20103;-69
2022/01/20 04:24:38;;;;;;;24.65;4.05;;;4.10;99.90;;;;;;5098884;27;20725;-69
2022/01/20 04:27:04;;;;;;;17.85;2.85;;;4.10;99.90;;;;;;5115908;27;20039;-69
2022/01/20 04:29:30;;;;;;;24.45;3.38;;;4.20;99.90;;;;;;5115905;27;20095;-69
2022/01/20 04:31:55;;;;;;;20.77;2.85;;;4.10;99.90;;;;;;5115279;27;20042;-69
2022/01/20 04:34:21;;;;;;;19.33;4.00;;;4.10;99.90;;;;;;5098725;27;20380;-69
2022/01/20 04:36:50;;;;;;;11.95;3.03;;;4.20;99.90;;;;;;5134155;27;20043;-69
2022/01/20 04:39:20;;;;;;;17.73;2.75;;;4.10;99.90;;;;;;5115730;27;20047;-69
2022/01/20 04:41:46;;;;;;;21.30;3.13;;;4.10;99.90;;;;;;5115250;27;20038;-69
2022/01/20 04:44:19;;;;;;;18.67;3.10;;;4.10;99.90;;;;;;5120232;27;20444;-69
2022/01/20 04:46:56;;;;;;;15.10;2.72;;;4.10;99.90;;;;;;5125389;27;20060;-69
2022/01/20 04:57:22;;;;;;;19.23;3.00;;;4.10;99.90;;;;;;5133686;27;20078;-69
2022/01/20 04:59:53;;;;;;;16.05;2.45;;;4.00;99.90;;;;;;5115246;27;20035;-69
2022/01/20 05:02:19;;;;;;;18.10;2.47;;;4.00;99.90;;;;;;5114937;27;20047;-69
2022/01/20 05:04:45;;;;;;;14.57;2.25;;;4.00;99.90;;;;;;5115349;27;20035;-69
2022/01/20 05:07:18;;;;;;;15.27;2.72;;;3.90;99.90;;;;;;5133431;27;20095;-69
2022/01/20 05:09:43;;;;;;;10.70;2.55;;;3.90;99.90;;;;;;5115107;27;20045;-70
2022/01/20 05:12:13;;;;;;;16.92;2.75;;;4.00;99.90;;;;;;5133128;27;20533;-69
2022/01/20 05:14:38;;;;;;;17.58;2.42;;;4.00;99.90;;;;;;5114182;27;20050;-69
2022/01/20 05:17:04;;;;;;;13.10;2.53;;;4.00;99.90;;;;;;5098287;27;20027;-69
2022/01/20 05:19:31;;;;;;;17.55;2.72;;;4.10;99.90;;;;;;5097913;27;20126;-69
2022/01/20 05:21:58;;;;;;;15.82;2.65;;;4.10;99.90;;;;;;5114544;27;20653;-69
2022/01/20 05:24:23;;;;;;;12.63;2.50;;;4.20;99.90;;;;;;5114787;27;20449;-69
2022/01/20 05:26:54;;;;;;;14.50;2.40;;;4.10;99.90;;;;;;5114728;27;20039;-69
2022/01/20 05:29:21;;;;;;;20.90;2.88;;;4.00;99.90;;;;;;5114799;27;20472;-69
2022/01/20 05:31:48;;;;;;;14.88;2.92;;;4.00;99.90;;;;;;5132757;27;20070;-69
2022/01/20 05:34:15;;;;;;;20.98;3.97;;;4.00;99.90;;;;;;5133015;27;20047;-69
2022/01/20 05:36:42;;;;;;;18.27;2.50;;;4.00;99.90;;;;;;5114370;27;20039;-69
2022/01/20 05:39:08;;;;;;;22.40;3.35;;;3.80;99.90;;;;;;5097740;27;20043;-69
2022/01/20 05:41:34;;;;;;;15.38;2.22;;;3.80;99.90;;;;;;5132583;27;20031;-69
2022/01/20 05:44:00;;;;;;;23.48;4.95;;;3.70;99.90;;;;;;5132863;27;20045;-69
2022/01/20 05:46:33;;;;;;;20.25;3.38;;;3.80;99.90;;;;;;5114459;27;20119;-69
2022/01/20 05:49:08;;;;;;;16.88;3.10;;;3.70;99.90;;;;;;5114667;28;20046;-69
2022/01/20 05:51:40;;;;;;;22.63;2.90;;;3.70;99.90;;;;;;5097682;28;20035;-69
2022/01/20 05:54:06;;;;;;;18.07;2.27;;;3.70;99.90;;;;;;5114032;27;20483;-69
2022/01/20 05:56:31;;;;;;;14.43;3.53;;;3.70;99.90;;;;;;5114283;28;20078;-70
2022/01/20 05:58:59;;;;;;;12.55;2.60;;;3.60;99.90;;;;;;5114606;28;20074;-70
2022/01/20 06:01:26;;;;;;;12.57;3.13;;;3.70;99.90;;;;;;5113741;28;20091;-69
2022/01/20 06:03:51;;;;;;;13.55;1.95;;;3.70;99.90;;;;;;5113649;28;20047;-69
2022/01/20 06:06:17;;;;;;;6.90;2.33;;;3.60;99.90;;;;;;5114218;28;20088;-69
2022/01/20 06:08:43;;;;;;;10.05;2.38;;;3.50;99.90;;;;;;5114250;28;20037;-69
2022/01/20 06:11:09;;;;;;;9.70;2.38;;;3.40;99.90;;;;;;5097342;28;20039;-69
2022/01/20 06:13:35;;;;;;;12.10;1.80;;;3.50;99.90;;;;;;5113671;28;20106;-70
2022/01/20 06:16:01;;;;;;;9.90;2.45;;;3.30;99.90;;;;;;5114619;28;20139;-70
2022/01/20 06:18:27;;;;;;;9.00;1.85;;;3.30;99.90;;;;;;5097527;28;20058;-70
2022/01/20 06:20:53;;;;;;;7.70;2.38;;;3.20;99.90;;;;;;5132761;28;20031;-69
2022/01/20 06:23:19;;;;;;;14.35;2.63;;;3.20;99.90;;;;;;5096830;27;20031;-69
2022/01/20 06:25:45;;;;;;;8.30;1.88;;;3.20;99.90;;;;;;5123936;28;20047;-69
2022/01/20 06:28:11;;;;;;;9.85;2.42;;;3.20;99.90;;;;;;5124722;28;20070;-70
2022/01/20 06:30:37;;;;;;;6.75;1.83;;;3.20;99.90;;;;;;5138651;28;20031;-69
2022/01/20 06:33:03;;;;;;;16.88;2.35;;;3.20;99.90;;;;;;5113886;28;20039;-69
2022/01/20 06:35:29;;;;;;;9.60;2.30;;;3.10;99.90;;;;;;5132149;27;20069;-69
2022/01/20 06:37:55;;;;;;;11.45;2.03;;;3.10;99.90;;;;;;5114347;28;20035;-69
2022/01/20 06:40:20;;;;;;;10.05;2.28;;;3.20;99.90;;;;;;5114046;28;20123;-69
2022/01/20 06:42:46;;;;;;;11.20;2.10;;;3.10;99.90;;;;;;5132169;28;20050;-69
2022/01/20 06:45:13;;;;;;;12.75;2.13;;;3.30;99.90;;;;;;5114055;28;20050;-69
2022/01/20 06:47:39;;;;;;;10.88;3.08;;;3.20;99.90;;;;;;5114273;28;20445;-69
2022/01/20 06:50:08;;;;;;;18.55;3.10;;;3.30;99.90;;;;;;5097181;28;20035;-69
2022/01/20 06:52:34;;;;;;;9.77;3.45;;;3.10;99.90;;;;;;5113623;28;20043;-69
2022/01/20 06:55:00;;;;;;;14.23;2.03;;;3.00;99.90;;;;;;5096668;28;20043;-69
2022/01/20 06:57:26;;;;;;;10.75;2.30;;;3.20;99.90;;;;;;5096846;28;20636;-69
2022/01/20 06:59:52;;;;;;;10.80;2.05;;;3.00;99.90;;;;;;5132261;28;20050;-69
2022/01/20 07:02:18;;;;;;;8.30;3.95;;;3.10;99.90;;;;;;5096354;28;20118;-69
2022/01/20 07:04:45;;;;;;;8.82;2.33;;;3.00;99.90;;;;;;5132192;27;20037;-69
2022/01/20 07:07:11;;;;;;;15.75;3.20;;;3.00;99.90;;;;;;5131850;28;20535;-69
2022/01/20 07:09:36;;;;;;;15.15;3.45;;;3.10;99.90;;;;;;5131825;28;20082;-69
2022/01/20 07:12:03;;;;;;;11.60;3.72;;;3.10;99.90;;;;;;5113512;27;20042;-69
2022/01/20 07:14:31;;;;;;;15.48;4.28;;;3.20;99.90;;;;;;5116133;27;20543;-69
2022/01/20 07:16:58;;;;;;;18.55;4.78;;;3.20;99.90;;;;;;5100848;27;20042;-69
2022/01/20 07:19:24;;;;;;;20.63;4.38;;;3.30;99.90;;;;;;5118096;27;20079;-69
2022/01/20 07:21:50;;;;;;;18.48;6.55;;;3.20;99.90;;;;;;5117297;27;20131;-69
2022/01/20 07:24:15;;;;;;;25.63;7.47;;;3.30;99.90;;;;;;5116626;27;20092;-69
2022/01/20 07:26:41;;;;;;;20.65;4.57;;;3.30;99.90;;;;;;5113885;27;20054;-68
2022/01/20 07:29:07;;;;;;;12.38;2.83;;;3.20;99.90;;;;;;5113969;27;20045;-69
2022/01/20 07:31:32;;;;;;;19.27;2.72;;;3.20;99.90;;;;;;5114661;27;20036;-69
2022/01/20 07:33:58;;;;;;;14.60;2.88;;;3.10;99.90;;;;;;5133650;27;20035;-69
2022/01/20 07:36:24;;;;;;;19.00;3.22;;;3.20;99.90;;;;;;5117002;27;20117;-69
2022/01/20 07:38:49;;;;;;;19.55;3.95;;;3.20;99.90;;;;;;5099222;27;20047;-69
2022/01/20 07:41:15;;;;;;;15.73;2.30;;;3.10;99.90;;;;;;5115910;27;20167;-69
2022/01/20 07:43:41;;;;;;;11.00;3.33;;;3.10;99.90;;;;;;5115500;27;20035;-69
2022/01/20 07:46:07;;;;;;;24.88;2.75;;;3.10;99.90;;;;;;5118700;27;20440;-69
2022/01/20 07:48:33;;;;;;;15.10;2.30;;;3.20;99.90;;;;;;5116650;27;20043;-69
2022/01/20 07:51:00;;;;;;;16.67;3.90;;;3.10;99.90;;;;;;5116807;27;20039;-69
2022/01/20 07:53:25;;;;;;;17.63;3.90;;;3.10;99.90;;;;;;5116533;27;20054;-69
2022/01/20 07:55:52;;;;;;;12.75;2.15;;;3.00;99.90;;;;;;5134835;27;20047;-69
2022/01/20 07:58:18;;;;;;;12.50;2.35;;;2.90;99.90;;;;;;5134858;27;20403;-69
2022/01/20 08:00:44;;;;;;;10.18;2.45;;;3.00;99.90;;;;;;5134937;27;20164;-69
2022/01/20 08:03:10;;;;;;;14.95;2.22;;;3.00;99.90;;;;;;5121783;27;20066;-69
2022/01/20 08:05:35;;;;;;;10.48;2.60;;;3.00;99.90;;;;;;5127545;27;20099;-69
2022/01/20 08:08:01;;;;;;;13.55;2.60;;;3.00;99.90;;;;;;5105423;27;20122;-69
2022/01/20 08:10:27;;;;;;;12.57;2.30;;;2.90;99.90;;;;;;5116461;27;20034;-69
2022/01/20 08:12:52;;;;;;;12.95;2.33;;;3.00;99.90;;;;;;5134217;27;20088;-69
2022/01/20 08:15:18;;;;;;;17.48;2.95;;;3.00;99.90;;;;;;5116415;27;20031;-69
2022/01/20 08:17:44;;;;;;;13.27;3.33;;;3.20;99.90;;;;;;5116126;27;20039;-69
2022/01/20 08:20:10;;;;;;;9.15;2.63;;;3.10;99.90;;;;;;5134526;27;20083;-69
2022/01/20 08:22:36;;;;;;;12.25;2.75;;;3.20;99.90;;;;;;5098635;27;20490;-69
2022/01/20 08:25:10;;;;;;;15.02;2.80;;;3.20;99.90;;;;;;5098471;27;20043;-69
2022/01/20 08:27:37;;;;;;;13.25;2.88;;;3.30;99.90;;;;;;5115812;27;20043;-69
2022/01/20 08:30:10;;;;;;;13.82;2.70;;;3.30;99.90;;;;;;5115883;27;20039;-69
2022/01/20 08:32:36;;;;;;;19.98;2.58;;;3.30;99.90;;;;;;5115034;27;20059;-69
2022/01/20 08:35:05;;;;;;;10.43;2.33;;;3.40;99.90;;;;;;5134201;27;20035;-69
2022/01/20 08:37:35;;;;;;;14.45;2.38;;;3.30;99.90;;;;;;5115789;27;20081;-69
2022/01/20 08:40:04;;;;;;;11.60;2.38;;;3.40;99.90;;;;;;5133992;27;20032;-69
2022/01/20 08:42:30;;;;;;;16.88;3.08;;;3.40;99.90;;;;;;5098631;27;20490;-69
2022/01/20 08:44:56;;;;;;;16.73;2.75;;;3.30;99.90;;;;;;5133897;27;20118;-69
2022/01/20 08:47:21;;;;;;;21.45;3.40;;;3.40;99.90;;;;;;5133904;27;20078;-69
2022/01/20 08:49:49;;;;;;;18.25;2.95;;;3.40;99.90;;;;;;5098399;27;20408;-69
2022/01/20 08:52:16;;;;;;;16.83;2.75;;;3.50;99.90;;;;;;5102583;27;20077;-68
2022/01/20 08:54:45;;;;;;;17.98;2.83;;;3.50;99.90;;;;;;5133694;27;20445;-68
2022/01/20 08:57:10;;;;;;;16.60;3.22;;;3.50;99.90;;;;;;5133857;27;20054;-68
2022/01/20 08:59:40;;;;;;;11.35;2.35;;;3.60;99.90;;;;;;5098442;27;20035;-68
2022/01/20 09:02:06;;;;;;;20.70;3.47;;;3.60;99.90;;;;;;5115120;27;20043;-69
2022/01/20 09:04:32;;;;;;;18.15;2.80;;;3.60;99.90;;;;;;5115207;27;20491;-68
2022/01/20 09:06:58;;;;;;;14.73;2.70;;;3.50;99.90;;;;;;5133143;27;20506;-69
2022/01/20 09:09:24;;;;;;;16.00;2.97;;;3.50;99.90;;;;;;5134610;27;20078;-69
2022/01/20 09:12:03;;;;;;;15.68;2.67;;;3.60;99.90;;;;;;5153738;27;20053;-69
2022/01/20 09:17:12;;;;;;;10.75;2.92;;;3.50;99.90;;;;;;5144191;27;20504;-70
2022/01/20 09:19:38;;;;;;;18.65;2.42;;;3.40;99.90;;;;;;5135453;27;20081;-69
2022/01/20 09:22:05;;;;;;;11.35;2.65;;;3.40;99.90;;;;;;5135655;27;20411;-69
2022/01/20 09:24:34;;;;;;;15.48;3.47;;;3.40;99.90;;;;;;5136209;27;20429;-68
2022/01/20 09:27:02;;;;;;;11.57;2.88;;;3.30;99.90;;;;;;5142336;27;20074;-69
2022/01/20 09:29:28;;;;;;;10.00;2.17;;;3.20;99.90;;;;;;5143868;27;20034;-69
2022/01/20 09:31:53;;;;;;;18.98;2.40;;;3.20;99.90;;;;;;5154265;27;20061;-70
2022/01/20 09:34:19;;;;;;;9.88;2.20;;;3.10;99.90;;;;;;5153623;27;20030;-70
2022/01/20 09:36:45;;;;;;;11.15;2.45;;;3.20;99.90;;;;;;5154172;27;20046;-70
2022/01/20 09:39:11;;;;;;;8.90;2.25;;;3.10;99.90;;;;;;5136810;27;20538;-70
2022/01/20 09:41:37;;;;;;;9.60;2.42;;;3.10;99.90;;;;;;5136015;27;20582;-70
2022/01/20 09:44:05;;;;;;;16.75;2.00;;;3.20;99.90;;;;;;5155080;27;20084;-70
2022/01/20 09:46:31;;;;;;;13.38;2.40;;;3.20;99.90;;;;;;5135345;27;20051;-70
2022/01/20 09:48:58;;;;;;;13.00;1.90;;;3.10;99.90;;;;;;5117976;27;20096;-70
2022/01/20 09:51:25;;;;;;;12.27;1.95;;;3.30;99.90;;;;;;5135696;27;20123;-70
2022/01/20 09:53:51;;;;;;;11.15;2.50;;;3.20;99.90;;;;;;5135147;27;20073;-70
2022/01/20 09:56:18;;;;;;;12.55;2.78;;;3.20;99.90;;;;;;5118356;27;20046;-70
2022/01/20 09:58:44;;;;;;;15.95;2.50;;;3.40;99.90;;;;;;5135005;27;20073;-70
2022/01/20 10:01:10;;;;;;;7.07;1.45;;;3.40;99.90;;;;;;5117891;27;20696;-69
2022/01/20 10:03:38;;;;;;;7.75;1.88;;;3.50;99.90;;;;;;5134892;27;20043;-70
2022/01/20 10:06:05;;;;;;;8.88;1.58;;;3.40;99.90;;;;;;5134756;27;20110;-69
2022/01/20 10:08:35;;;;;;;16.13;2.10;;;3.30;99.90;;;;;;5118109;27;20440;-70
2022/01/20 10:11:09;;;;;;;12.38;1.90;;;3.50;99.90;;;;;;5117723;27;20034;-70
2022/01/20 10:13:37;;;;;;;16.40;2.65;;;3.40;99.90;;;;;;5134442;27;20115;-70
2022/01/20 10:16:08;;;;;;;8.00;1.85;;;3.40;99.90;;;;;;5153278;27;20163;-70
2022/01/20 10:18:44;;;;;;;12.60;2.15;;;3.40;99.90;;;;;;5134831;27;20043;-70
2022/01/20 10:21:10;;;;;;;6.63;1.77;;;3.40;99.90;;;;;;5134578;27;20042;-70
2022/01/20 10:23:39;;;;;;;10.10;2.70;;;3.40;99.90;;;;;;5134589;27;20039;-70
2022/01/20 10:26:15;;;;;;;5.25;2.08;;;3.30;99.90;;;;;;5153122;27;20051;-70
2022/01/20 10:28:48;;;;;;;7.00;1.92;;;3.40;99.90;;;;;;5134582;27;20046;-70
2022/01/20 10:31:19;;;;;;;7.72;1.85;;;3.40;99.90;;;;;;5134652;27;20038;-70
2022/01/20 10:33:45;;;;;;;10.95;2.22;;;3.40;99.90;;;;;;5116877;27;20043;-70
2022/01/20 10:36:12;;;;;;;5.72;1.75;;;3.40;99.90;;;;;;5134567;27;20057;-70
2022/01/20 10:38:58;;;;;;;11.25;2.00;;;3.40;99.90;;;;;;5134664;27;20038;-69
2022/01/20 10:41:34;;;;;;;8.45;1.63;;;3.60;99.90;;;;;;5134262;27;20057;-69
2022/01/20 10:44:06;;;;;;;20.27;3.42;;;3.40;99.90;;;;;;5117384;27;20039;-69
2022/01/20 10:46:44;;;;;;;11.32;1.90;;;3.40;99.90;;;;;;5117344;27;20038;-69
2022/01/20 10:49:10;;;;;;;19.15;4.40;;;3.50;99.90;;;;;;5140760;27;20074;-69
2022/01/20 10:51:36;;;;;;;13.32;2.58;;;3.30;99.90;;;;;;5125207;27;20052;-70
2022/01/20 10:54:04;;;;;;;9.73;1.98;;;3.20;99.90;;;;;;5122270;27;20091;-69
2022/01/20 10:56:36;;;;;;;6.30;1.92;;;3.20;99.90;;;;;;5138965;27;20113;-68
2022/01/20 10:59:09;;;;;;;7.93;1.95;;;3.20;99.90;;;;;;5128326;27;20086;-69
2022/01/20 11:01:34;;;;;;;11.10;2.60;;;3.10;99.90;;;;;;5126318;27;20039;-70
2022/01/20 11:04:00;;;;;;;7.47;2.08;;;3.20;99.90;;;;;;5141700;27;20110;-70
2022/01/20 11:06:28;;;;;;;12.88;2.22;;;3.20;99.90;;;;;;5122366;27;20039;-69
2022/01/20 11:08:55;;;;;;;14.15;2.45;;;3.20;99.90;;;;;;5117073;27;20038;-70
2022/01/20 11:11:20;;;;;;;14.75;3.10;;;3.20;99.90;;;;;;5135160;27;20043;-69
2022/01/20 11:13:46;;;;;;;26.42;3.95;;;3.30;99.90;;;;;;5116301;27;20046;-70
2022/01/20 11:16:12;;;;;;;11.15;2.35;;;3.40;99.90;;;;;;5104314;27;20086;-70
2022/01/20 11:18:42;;;;;;;11.27;2.08;;;3.40;99.90;;;;;;5119303;27;20050;-69
2022/01/20 11:21:08;;;;;;;8.80;1.92;;;3.40;99.90;;;;;;5135002;27;20047;-70
2022/01/20 11:23:42;;;;;;;8.00;2.65;;;3.40;99.90;;;;;;5134943;27;20039;-70
2022/01/20 11:26:08;;;;;;;6.20;2.35;;;3.50;99.90;;;;;;5099852;27;20160;-71
2022/01/20 11:28:34;;;;;;;9.93;1.95;;;3.50;99.90;;;;;;5116697;27;20047;-70
2022/01/20 11:31:06;;;;;;;7.97;1.70;;;3.50;99.90;;;;;;5135071;27;20047;-70
2022/01/20 11:33:37;;;;;;;15.30;2.42;;;3.50;99.90;;;;;;5099383;27;20050;-70
2022/01/20 11:36:05;;;;;;;14.55;3.47;;;3.60;99.90;;;;;;5104766;27;20035;-70
2022/01/20 11:38:43;;;;;;;8.02;1.88;;;3.70;99.90;;;;;;5105342;27;20046;-70
2022/01/20 11:41:13;;;;;;;15.40;2.25;;;3.70;99.90;;;;;;5105427;27;20042;-70
2022/01/20 11:43:45;;;;;;;15.60;2.47;;;3.60;99.90;;;;;;5101269;27;20039;-69
2022/01/20 11:46:23;;;;;;;12.73;2.28;;;3.80;99.90;;;;;;5106343;27;20100;-70
2022/01/20 11:49:06;;;;;;;7.45;2.33;;;3.80;99.90;;;;;;5124164;27;20039;-70
2022/01/20 11:51:50;;;;;;;;;;;3.90;99.90;;;;;;5134484;27;20066;-69
2022/01/20 11:54:26;;;;;;;14.82;2.72;;;4.00;99.90;;;;;;5113053;27;19991;-70
2022/01/20 11:57:05;;;;;;;12.48;2.40;;;4.10;99.90;;;;;;5134784;27;20544;-69
2022/01/20 11:59:42;;;;;;;22.75;2.83;;;4.20;99.90;;;;;;5113782;27;20062;-69
2022/01/20 12:02:09;;;;;;;13.00;2.90;;;4.20;99.90;;;;;;5131540;27;20054;-69
2022/01/20 12:04:37;;;;;;;10.35;2.38;;;4.30;99.90;;;;;;5134678;27;20043;-68
2022/01/20 12:07:04;;;;;;;11.95;2.58;;;4.30;99.90;;;;;;5098768;27;20054;-68
2022/01/20 12:09:35;;;;;;;12.80;3.53;;;4.30;99.90;;;;;;5115789;27;20117;-69
2022/01/20 12:12:06;;;;;;;11.95;2.22;;;4.40;99.90;;;;;;5124854;27;20092;-69
2022/01/20 12:14:38;;;;;;;12.60;3.42;;;4.50;99.90;;;;;;5123927;28;20127;-69
2022/01/20 12:17:11;;;;;;;8.35;2.33;;;4.50;99.90;;;;;;5097875;28;20115;-68
2022/01/20 12:19:37;;;;;;;11.75;2.45;;;4.50;99.90;;;;;;5113380;28;20079;-70
2022/01/20 12:22:05;;;;;;;7.93;2.30;;;4.40;99.90;;;;;;5113481;28;20123;-69
2022/01/20 12:24:31;;;;;;;8.63;2.08;;;4.20;99.90;;;;;;5078539;28;20046;-69
2022/01/20 12:26:57;;;;;;;9.55;1.92;;;4.10;99.90;;;;;;5078809;28;20092;-70
2022/01/20 12:29:36;;;;;;;9.32;2.63;;;4.20;99.90;;;;;;5113655;28;20048;-69
2022/01/20 12:32:09;;;;;;;8.43;2.67;;;4.10;99.90;;;;;;5095006;28;20108;-69
2022/01/20 12:34:35;;;;;;;10.52;2.00;;;4.20;99.90;;;;;;5078519;28;20564;-70
2022/01/20 12:37:01;;;;;;;21.52;2.60;;;4.20;99.90;;;;;;5113556;28;20096;-70
2022/01/20 12:39:38;;;;;;;14.23;2.25;;;4.10;99.90;;;;;;5095351;28;20049;-70
2022/01/20 12:42:07;;;;;;;13.82;2.63;;;4.20;99.90;;;;;;5094960;28;20047;-70
2022/01/20 12:44:47;;;;;;;9.73;2.05;;;4.20;99.90;;;;;;5113224;28;20533;-69
2022/01/20 12:47:13;;;;;;;17.20;3.08;;;4.20;99.90;;;;;;5095164;28;20047;-70
2022/01/20 12:49:39;;;;;;;10.20;2.28;;;4.30;99.90;;;;;;5094809;28;20051;-70
2022/01/20 12:52:07;;;;;;;11.80;2.45;;;4.30;99.90;;;;;;5112979;28;20418;-69
2022/01/20 12:54:34;;;;;;;11.73;3.50;;;4.40;99.90;;;;;;5094105;28;20031;-69
2022/01/20 12:57:07;;;;;;;17.13;3.17;;;4.40;99.90;;;;;;5094966;28;20043;-69
2022/01/20 12:59:37;;;;;;;;;;;4.50;99.90;;;;;;5113595;28;20070;-69
2022/01/20 13:02:23;;;;;;;13.77;2.90;;;4.50;99.90;;;;;;5077372;28;19915;-69
2022/01/20 13:04:57;;;;;;;11.57;2.80;;;4.60;99.90;;;;;;5094736;28;20118;-68
2022/01/20 13:07:23;;;;;;;12.18;2.88;;;4.50;99.90;;;;;;5112803;28;20069;-69
2022/01/20 13:10:04;;;;;;;12.98;3.00;;;4.40;99.90;;;;;;5112750;28;20095;-67
2022/01/20 13:12:39;;;;;;;19.88;3.90;;;4.50;99.90;;;;;;5094250;28;20071;-70
2022/01/20 13:15:18;;;;;;;16.00;3.05;;;4.50;99.90;;;;;;5112546;28;20100;-69
2022/01/20 13:17:48;;;;;;;20.02;2.80;;;4.60;99.90;;;;;;5094146;28;20086;-69
2022/01/20 13:20:20;;;;;;;22.17;3.42;;;4.60;99.90;;;;;;5094836;28;20135;-69
2022/01/20 13:22:56;;;;;;;14.27;2.88;;;4.60;99.90;;;;;;5112449;28;20441;-70
2022/01/20 13:25:28;;;;;;;11.25;2.38;;;4.70;99.90;;;;;;5094390;28;20091;-69
2022/01/20 13:27:58;;;;;;;21.60;3.25;;;4.70;99.90;;;;;;5077461;28;20040;-69
2022/01/20 13:30:36;;;;;;;13.02;2.67;;;4.80;99.90;;;;;;5094490;28;20040;-69
2022/01/20 13:33:12;;;;;;;15.50;2.65;;;4.80;99.90;;;;;;5094587;28;20123;-70
2022/01/20 13:35:43;;;;;;;14.82;2.50;;;4.70;99.90;;;;;;5113104;28;20122;-70
2022/01/20 13:38:09;;;;;;;9.50;1.85;;;4.70;99.90;;;;;;5079305;28;20043;-70
2022/01/20 13:40:43;;;;;;;6.90;2.05;;;4.50;99.90;;;;;;5100800;28;20115;-70
2022/01/20 13:46:04;;;;;;;17.25;2.85;;;4.40;99.90;;;;;;5111210;28;20052;-70
2022/01/20 13:48:34;;;;;;;7.97;2.25;;;4.30;99.90;;;;;;5098229;28;20522;-70
2022/01/20 13:51:03;;;;;;;11.70;2.35;;;4.40;99.90;;;;;;5114598;28;20080;-69
2022/01/20 13:53:30;;;;;;;18.23;2.50;;;4.40;99.90;;;;;;5096913;27;20039;-70
2022/01/20 13:55:58;;;;;;;11.65;2.90;;;4.50;99.90;;;;;;5113686;27;20043;-69
2022/01/20 13:58:37;;;;;;;10.60;2.03;;;4.50;99.90;;;;;;5132880;27;20406;-69